ENBNENVA

Guest
Details From ENBN - BRONNOY
To ENVA - Vaernes
Flight Number -
Tags generated
Created
Modified
Stats Distance 125 nm / 231 km
Max Altitude 10,200 ft / 3,109 m
Waypoints 4
Social Downloads 0
Likes 0
Share VATSIM

Download

Looking for another format? Having issues loading an existing format? Contact us
Advertisement - Login to hide

Notes

Basic altitude profile: - Ascent Rate: 2500ft/min - Ascent Speed: 250kts - Cruise Altitude: 1900ft - Cruise Speed: 300kts - Descent Rate: 1500ft/min - Descent Speed: 250kts Options: - Use NATs: yes - Use PACOTS: no - Use low airways: yes - Use high airways: yes

Route

ENBN BINTU M609 NAMOX ENVA

ID Type Via Altitude Latitude Longitude Leg Dist Tot Dist Heading (true) Name
O ENBN APT - 0 ft / 0 m 65.45908˚ 12.21347˚ - 0 nm - BRONNOY
BINTU FIX - 10,200 ft / 3,109 m 65.00000˚ 11.88278˚ 28 nm 28 nm 197° / 197° -
NAMOX FIX M609 (AWY-LO) 9,600 ft / 2,926 m 64.18611˚ 11.32111˚ 50 nm 79 nm 197° / 196° -
O ENVA APT - 0 ft / 0 m 63.45760˚ 10.91798˚ 45 nm 124 nm 194° / 194° Vaernes

Altitude Profile

Advertisement - Login to hide

ENBN

Details ICAO ENBN (BNN)
Name BRONNOY
Region Norway
Timezone Unknown (UTC+0.0)
Stats Elevation 25 ft / 8 m (AMSL)
Location 65.459085° 12.213468°
Runways 1
Magnetic Variation 4.316° E

METAR

ENBN 120420Z AUTO 06006KT 010V080 9999NDV NCD M02/M09 Q0996

Decode

TAF

Not found

Departure Runways

ID Width Length Bearing (true) Bearing (mag) Surface Threshold Offset Overrun Length
04 98 ft / 30 m 4,715 ft / 1,437 m 38.96° 34.64° Asphalt 387 ft / 118 m 0 ft / 0 m
22 98 ft / 30 m 4,715 ft / 1,437 m 218.97° 214.65° Asphalt 387 ft / 118 m 0 ft / 0 m

ENVA

Details ICAO ENVA (TRD)
Name Vaernes
Region Norway
Timezone Europe/Oslo (UTC+1.0)
Stats Elevation 56 ft / 17 m (AMSL)
Location 63.457605° 10.917980°
Runways 1
Magnetic Variation 3.494° E

METAR

ENVA 120420Z 08004KT 9999 SCT046 M09/M11 Q0997 RMK WIND 670FT VRB02KT

Decode

TAF

TAF ENVA 112300Z 1200/1224 12008KT 9999 SCT040 BECMG 1214/1216 4000 -SN TEMPO 1216/1224 2000 SHSN VV008

Decode

Destination Runways

ID Width Length Bearing (true) Bearing (mag) Surface Threshold Offset Overrun Length
09 148 ft / 45 m 9,356 ft / 2,852 m 90.21° 86.72° Asphalt 984 ft / 300 m 0 ft / 0 m
27 148 ft / 45 m 9,356 ft / 2,852 m 270.26° 266.77° Asphalt 689 ft / 210 m 0 ft / 0 m

Approach Navaids

Runway Type Ident Frequency Range Bearing (true) Bearing (mag) Slope Elevation
09 Localiser TO 110.30 MHz 18 nm / 33 km 90.26° 86.77° - 31 ft / 9 m (AMSL)
09 Glidescope TO 110.30 MHz 10 nm / 19 km 90.23° 86.74° 3.00° 56 ft / 17 m (AMSL)
09 DME TO 110.30 MHz 18 nm / 33 km - - - 31 ft / 9 m (AMSL)
27 Localiser TD 109.90 MHz 18 nm / 33 km 270.20° 266.71° - 56 ft / 17 m (AMSL)
27 Glidescope TD 109.90 MHz 10 nm / 19 km 270.23° 266.74° 3.40° 56 ft / 17 m (AMSL)
27 DME TD 109.90 MHz 18 nm / 33 km - - - 78 ft / 24 m (AMSL)

Popular Alternatives